• Join FlightAware (Why Join?)
  • Login
  • US Flag 
08:54AM EDT


 

Airport Tracker/Info


-or-


 

Live Flight TrackerFlight Track Log ✈ UAL335 ✈ 24-Apr-2013 ✈ KTPA - KEWR

Flight Track Log - Related Links

Times and Time Zones

All times are in EDT time to prevent confusion due to time zone crossing. See the UAL335 flight status page for this flight to view local times or setup timezone preferences in your user account.

Time Position Orientation Groundspeed Altitude Reporting Facility
EDT Latitude Longitude Course Direction KTS MPH feet Rate Location/Type
06:19PM 27.9833 -82.5333 355° North 160 184 600  Level Tampa TRACON
06:21PM 28.0833 -82.5333 360° North 230 265 3,400 2,040 Climbing Tampa TRACON
06:22PM 28.3130 -82.5667 North  Level FlightAware Approximate
06:22PM 28.1703 -82.5511 350° North 271 312 6,900  Level Jacksonville Center
06:23PM 28.4303 -82.5714 355° North  Level FlightAware Approximate
06:23PM 28.2517 -82.5628 353° North 276 318 9,500  Level Jacksonville Center
06:24PM 28.5473 -82.5831 355° North  Level FlightAware Approximate
06:24PM 28.3353 -82.5767 352° North 295 339 11,700  Level Jacksonville Center
06:25PM 28.4292 -82.6000 348° North 317 365 13,100 1,800 Climbing Jacksonville Center
06:26PM 28.5317 -82.6278 347° North 348 400 15,400 2,100 Climbing Jacksonville Center
06:27PM 28.6381 -82.6325 358° North 372 428 17,300 1,620 Climbing Jacksonville Center
06:28PM 28.7444 -82.6417 356° North 377 434 18,700 1,380 Climbing Jacksonville Center
06:29PM 28.8614 -82.6483 357° North 397 457 20,100 1,440 Climbing Jacksonville Center
06:30PM 28.9783 -82.6600 355° North 408 470 21,600 1,440 Climbing Jacksonville Center
06:31PM 29.1036 -82.6669 357° North 426 490 23,000 1,380 Climbing Jacksonville Center
06:32PM 29.2244 -82.6783 355° North 437 503 24,400 2,100 Climbing Jacksonville Center
06:33PM 29.3456 -82.6878 356° North 437 503 27,200 2,220 Climbing Jacksonville Center
06:34PM 29.4542 -82.7161 347° North 421 484 28,900 1,200 Climbing Jacksonville Center
06:35PM 29.5775 -82.7589 343° North 413 475 29,700 960 Climbing Jacksonville Center
06:36PM 29.6944 -82.7897 347° North 425 489 30,900 840 Climbing Jacksonville Center
06:37PM 29.8092 -82.8231 346° North 420 483 31,500 540 Climbing Jacksonville Center
06:38PM 29.9325 -82.8589 346° North 434 499 32,000 660 Climbing Jacksonville Center
06:39PM 30.0578 -82.8517 North 439 505 32,900 1,020 Climbing Jacksonville Center
06:40PM 30.1767 -82.7964 22° Northeast 448 516 34,100 960 Climbing Jacksonville Center
06:41PM 30.2978 -82.7411 22° Northeast 448 516 34,900 780 Climbing Jacksonville Center
06:42PM 30.4167 -82.6878 21° North 454 522 35,700 780 Climbing Jacksonville Center
06:43PM 30.5336 -82.6369 21° North 454 522 36,500 600 Climbing Jacksonville Center
06:44PM 30.6544 -82.5811 22° Northeast 449 517 36,900 240 Climbing Jacksonville Center
06:45PM 30.7756 -82.5275 21° North 454 522 37,000  Climbing Jacksonville Center
06:46PM 30.8964 -82.4714 22° Northeast 454 522 36,900  Descending Jacksonville Center
06:47PM 31.0194 -82.4150 21° North 461 531 37,000  Climbing Jacksonville Center
06:48PM 31.1444 -82.3561 22° Northeast 472 543 36,900  Descending Jacksonville Center
06:49PM 31.2694 -82.2994 21° North 472 543 37,000  Climbing Jacksonville Center
06:50PM 31.3797 -82.2500 21° North 467 537 37,000 -60 Level Jacksonville Center
06:51PM 31.5028 -82.1958 21° North 467 537 36,900 -60 Descending Jacksonville Center
06:52PM 31.6236 -82.1361 23° Northeast 467 537 36,900  Level Jacksonville Center
06:53PM 31.7589 -82.0692 23° Northeast 474 545 37,000  Climbing Jacksonville Center
06:54PM 31.8794 -82.0142 21° North 468 539 37,000  Level Jacksonville Center
06:55PM 31.9919 -81.9617 22° Northeast 473 544 37,000  Level Jacksonville Center
06:56PM 32.1272 -81.8967 22° Northeast 473 544 37,000  Level Jacksonville Center
06:57PM 32.2497 -81.8411 21° North 473 544 37,000  Level Jacksonville Center
06:58PM 32.3622 -81.7858 23° Northeast 478 550 37,000  Level Jacksonville Center
06:59PM 32.4972 -81.7225 22° Northeast 478 550 37,000  Level Jacksonville Center
07:00PM 32.6075 -81.6669 23° Northeast 471 542 37,000 -60 Level Jacksonville Center
07:01PM 32.7278 -81.5986 26° Northeast 477 549 36,900 -60 Descending Jacksonville Center
07:02PM 32.8417 -81.5128 32° Northeast 477 549 36,900  Level Jacksonville Center
07:03PM 32.9556 -81.4219 34° Northeast 484 557 36,900  Level Jacksonville Center
07:04PM 33.0692 -81.3308 34° Northeast 489 563 37,000  Climbing Jacksonville Center
07:05PM 33.1786 -81.2397 35° Northeast 489 563 37,000 -60 Level Jacksonville Center
07:06PM 33.2922 -81.1506 33° Northeast 483 556 36,900  Descending Jacksonville Center
07:07PM 33.4058 -81.0589 34° Northeast 483 556 37,000  Climbing Jacksonville Center
07:08PM 33.5169 -80.9669 35° Northeast 483 556 37,000 -60 Level Jacksonville Center
07:09PM 33.6306 -80.8769 33° Northeast 489 563 36,900 -60 Descending Jacksonville Center
07:10PM 33.7436 -80.7844 34° Northeast 489 563 36,900  Level Jacksonville Center
07:11PM 33.8569 -80.6917 34° Northeast 489 563 36,900  Level Jacksonville Center
07:12PM 33.9681 -80.6014 34° Northeast 489 563 37,000  Climbing Jacksonville Center
07:13PM 34.0831 -80.5106 33° Northeast 489 563 37,000  Level Jacksonville Center
07:14PM 34.1961 -80.4147 35° Northeast 489 563 37,000 -60 Level Jacksonville Center
07:15PM 34.3089 -80.3208 35° Northeast 489 563 36,900 -60 Descending Jacksonville Center
07:16PM 34.4194 -80.2269 35° Northeast 489 563 36,900  Level Jacksonville Center
07:18PM 34.6614 -80.0233 35° Northeast 492 566 37,000  Climbing Washington Center
07:19PM 34.7842 -79.9211 34° Northeast 492 566 37,000  Level Washington Center
07:20PM 34.8981 -79.8261 34° Northeast 492 566 37,000  Level Washington Center
07:21PM 35.0119 -79.7306 34° Northeast 492 566 37,000  Level Washington Center
07:22PM 35.1239 -79.6347 35° Northeast 492 566 37,000  Level Washington Center
07:23PM 35.2414 -79.5467 31° Northeast 484 557 37,000  Level Washington Center
07:24PM 35.3569 -79.4606 31° Northeast 484 557 37,000  Level Washington Center
07:25PM 35.4786 -79.3772 29° Northeast 493 567 37,000  Level Washington Center
07:26PM 35.5939 -79.2906 31° Northeast 497 572 37,000  Level Washington Center
07:27PM 35.7136 -79.2017 31° Northeast 497 572 37,000  Level Washington Center
07:28PM 35.8350 -79.1150 30° Northeast 497 572 37,000  Level Washington Center
07:29PM 35.9725 -79.0542 20° North 480 552 37,000  Level Washington Center
07:30PM 36.1019 -79.0497 North 466 536 37,000 -840 Level Washington Center
07:31PM 36.2264 -79.0011 17° North 466 536 35,400 -1,800 Descending Washington Center
07:32PM 36.3356 -78.9028 36° Northeast 461 531 33,500 -2,100 Descending Washington Center
07:33PM 36.4447 -78.8067 35° Northeast 480 552 31,200 -2,280 Descending Washington Center
07:34PM 36.5578 -78.7078 35° Northeast 492 566 29,000 -1,200 Descending Washington Center
07:35PM 36.6669 -78.6086 36° Northeast 492 566 28,800 -540 Descending Washington Center
07:36PM 36.7714 -78.5089 37° Northeast 476 548 28,000 -900 Descending Washington Center
07:37PM 36.8694 -78.4244 35° Northeast 455 524 27,100 -540 Descending Washington Center
07:38PM 36.9675 -78.3369 35° Northeast 429 494 27,000 -60 Descending Washington Center
07:39PM 37.0633 -78.2494 36° Northeast 424 488 27,000  Level Washington Center
07:40PM 37.1506 -78.1717 35° Northeast 424 488 27,000  Level Washington Center
07:41PM 37.2569 -78.0733 36° Northeast 424 488 27,000  Level Washington Center
07:42PM 37.3653 -77.9803 34° Northeast 440 506 27,000  Level Washington Center
07:43PM 37.4694 -77.8842 36° Northeast 461 531 27,000  Level Washington Center
07:44PM 37.5756 -77.7878 36° Northeast 461 531 27,000  Level Washington Center
07:45PM 37.6836 -77.6911 35° Northeast 461 531 27,000  Level Washington Center
07:46PM 37.7917 -77.5917 36° Northeast 466 536 27,000  Level Washington Center
07:47PM 37.8997 -77.4917 36° Northeast 466 536 27,000  Level Washington Center
07:48PM 38.0053 -77.3942 36° Northeast 471 542 27,000 -60 Level Washington Center
07:49PM 38.1006 -77.3094 35° Northeast 466 536 26,900 -600 Descending Washington Center
07:50PM 38.2061 -77.2114 36° Northeast 466 536 25,900 -960 Descending Washington Center
07:51PM 38.3094 -77.1158 36° Northeast 466 536 25,000 -480 Descending Washington Center
07:52PM 38.4108 -77.0200 37° Northeast 454 522 25,000  Level Washington Center
07:53PM 38.5139 -76.9264 35° Northeast 454 522 25,000  Level Washington Center
07:54PM 38.6278 -76.8167 37° Northeast 459 528 25,000  Level Washington Center
07:55PM 38.7289 -76.7172 37° Northeast 459 528 25,000  Level Washington Center
07:56PM 38.8236 -76.6069 42° Northeast 459 528 25,000  Level Washington Center
07:57PM 38.9183 -76.4986 42° Northeast 459 528 25,000  Level Washington Center
07:58PM 39.0150 -76.3825 43° Northeast 459 528 25,000  Level Washington Center
07:59PM 39.1114 -76.2739 41° Northeast 459 528 25,000  Level Washington Center
08:00PM 39.1869 -76.1833 43° Northeast 459 528 25,000  Level Washington Center
08:01PM 39.3064 -76.0503 41° Northeast 465 535 25,000 -60 Level Washington Center
08:02PM 39.4025 -75.9381 42° Northeast 465 535 24,900 -600 Descending Washington Center
08:03PM 39.4967 -75.8228 43° Northeast 465 535 23,900 -1,500 Descending Washington Center
08:04PM 39.5928 -75.7128 41° Northeast 465 535 21,900 -2,160 Descending Washington Center
08:05PM 39.6844 -75.6022 43° Northeast 459 528 19,600 -2,100 Descending Washington Center
08:06PM 39.7739 -75.4942 43° Northeast 449 517 17,800 -1,980 Descending Washington Center
08:07PM 39.8614 -75.3889 43° Northeast 436 502 15,700 -2,400 Descending Washington Center
08:08PM 39.9464 -75.2856 43° Northeast 422 486 13,100 -1,440 Descending Washington Center
08:09PM 40.0233 -75.1906 43° Northeast 400 460 12,900 -120 Descending Washington Center
08:10PM 40.0897 -75.1114 42° Northeast 358 412 12,900 -120 Level Washington Center
08:11PM 40.1558 -75.0322 42° Northeast 328 377 12,700 -720 Descending Washington Center
08:12PM 40.2181 -74.9503 45° Northeast 313 360 11,500 -900 Descending Washington Center
08:13PM 40.2697 -74.8628 52° Northeast 308 354 10,900 -300 Descending Washington Center
08:14PM 40.2256 -74.8036 134° Southeast 184 212 10,900  Level Washington Center
08:15PM 40.1778 -74.8367 208° Southwest 116 133 10,900  Level Washington Center
08:16PM 40.1386 -74.8886 225° Southwest 137 158 10,900  Level Washington Center
08:17PM 40.1139 -74.9514 243° Southwest 184 212 10,900  Level Washington Center
08:18PM 40.1558 -75.0078 314° West 167 192 10,900  Level Washington Center
08:19PM 40.2264 -74.9475 33° Northeast 171 197 10,900  Level Washington Center
08:20PM 40.2694 -74.8547 59° Northeast 223 257 10,900  Level Washington Center
08:21PM 40.2172 -74.8064 145° Southeast 161 185 10,900  Level Washington Center
08:22PM 40.1717 -74.8450 213° Southwest 115 132 10,900  Level Washington Center
08:23PM 40.1344 -74.8967 227° Southwest 148 170 10,900  Level Washington Center
08:24PM 40.1056 -74.9567 238° Southwest 179 206 10,900  Level Washington Center
08:25PM 40.0767 -75.0194 239° Southwest 201 231 10,900  Level Washington Center
08:26PM 40.0519 -75.0819 243° Southwest 201 231 10,900  Level Washington Center
08:27PM 40.0439 -75.1525 262° West 201 231 10,900  Level Washington Center
08:28PM 40.1067 -75.1847 339° North 176 203 10,900  Level Washington Center
08:29PM 40.1625 -75.0919 52° Northeast 196 226 10,900 -300 Level Washington Center
08:30PM 40.2167 -74.9833 57° Northeast 357 411 10,400 -960 Descending New York TRACON
08:31PM 40.2667 -74.8833 57° Northeast 343 395 9,000 -1,740 Descending New York TRACON
08:32PM 40.3333 -74.8000 44° Northeast 327 376 7,000 -1,440 Descending New York TRACON
08:33PM 40.4000 -74.6833 53° Northeast 309 356 6,100 -480 Descending New York TRACON
08:34PM 40.4333 -74.6167 57° Northeast 280 322 6,100  Level New York TRACON
08:35PM 40.4667 -74.5167 66° East 284 327 6,100  Level New York TRACON
08:36PM 40.5333 -74.4833 21° North 252 290 6,100  Level New York TRACON
08:37PM 40.6000 -74.4833 360° North 247 284 6,100  Level New York TRACON
08:38PM 40.6667 -74.4833 360° North 248 285 6,100  Level New York TRACON